Time;durP1;ratioP1;P1;durP2;ratioP2;P2;SDS_P1;SDS_P2;PMS_P1;PMS_P2;Temp;Humidity;BMP_temperature;BMP_pressure;BME280_temperature;BME280_humidity;BME280_pressure;Samples;Min_cycle;Max_cycle;Signal;HPM_P1;HPM_P2
2021/03/21 00:00:52;;;;;;;5.40;3.33;;;;;;;-0.46;66.07;99001.34;1770408;78;21629;-78
2021/03/21 00:03:21;;;;;;;7.08;3.47;;;;;;;-0.42;65.95;98993.20;1744319;80;21194;-78
2021/03/21 00:05:48;;;;;;;6.25;3.10;;;;;;;-0.40;65.94;98989.31;1763494;80;21228;-79
2021/03/21 00:08:23;;;;;;;4.67;3.17;;;;;;;-0.39;65.96;98984.58;1772027;78;21131;-80
2021/03/21 00:10:58;;;;;;;5.40;3.10;;;;;;;-0.38;66.01;98971.75;1766915;79;21310;-79
2021/03/21 00:13:27;;;;;;;5.72;3.45;;;;;;;-0.38;66.12;98960.20;1767870;78;21242;-79
2021/03/21 00:15:56;;;;;;;8.33;3.37;;;;;;;-0.38;66.09;98969.19;1763932;78;21207;-79
2021/03/21 00:18:28;;;;;;;4.60;3.30;;;;;;;-0.38;66.27;98962.77;1769659;80;21076;-79
2021/03/21 00:20:56;;;;;;;3.92;2.87;;;;;;;-0.37;66.24;98955.48;1768392;80;21149;-79
2021/03/21 00:23:23;;;;;;;;;;;;;;;-0.36;66.33;98954.63;1769259;78;21973;-79
2021/03/21 00:25:51;;;;;;;7.60;3.08;;;;;;;-0.34;66.50;98945.17;1762117;80;20283;-79
2021/03/21 00:28:23;;;;;;;4.87;3.30;;;;;;;-0.33;66.43;98936.63;1766380;79;21228;-79
2021/03/21 00:30:51;;;;;;;5.47;3.42;;;;;;;-0.34;66.48;98937.47;1765710;80;21060;-79
2021/03/21 00:33:23;;;;;;;3.92;2.83;;;;;;;-0.34;66.45;98929.77;1766310;80;21177;-79
2021/03/21 00:35:52;;;;;;;5.12;3.37;;;;;;;-0.34;66.88;98931.50;1767265;79;21262;-80
2021/03/21 00:38:24;;;;;;;6.42;3.55;;;;;;;-0.36;66.83;98918.72;1764985;78;21254;-79
2021/03/21 00:40:52;;;;;;;6.60;3.10;;;;;;;-0.36;66.78;98911.02;1767626;78;21214;-79
2021/03/21 00:43:19;;;;;;;7.55;4.03;;;;;;;-0.37;66.87;98918.28;1766239;78;21231;-79
2021/03/21 00:45:47;;;;;;;8.28;3.35;;;;;;;-0.40;66.94;98905.52;1765426;80;21167;-79
2021/03/21 00:48:19;;;;;;;5.58;3.17;;;;;;;-0.41;66.95;98903.83;1761030;79;21311;-79
2021/03/21 00:50:46;;;;;;;4.22;3.15;;;;;;;-0.41;67.26;98902.55;1768525;78;21592;-79
2021/03/21 00:53:14;;;;;;;;;;;;;;;-0.45;67.24;98891.91;1767294;80;21208;-79
2021/03/21 00:55:41;;;;;;;5.83;2.95;;;;;;;-0.46;67.27;98886.38;1772280;80;20228;-79
2021/03/21 00:58:09;;;;;;;6.53;3.17;;;;;;;-0.46;67.26;98873.56;1769740;80;21282;-79
2021/03/21 01:00:40;;;;;;;5.67;3.45;;;;;;;-0.48;67.54;98868.88;1769743;78;22303;-79
2021/03/21 01:03:09;;;;;;;5.17;3.60;;;;;;;-0.50;67.45;98867.64;1766112;78;21260;-79
2021/03/21 01:05:43;;;;;;;6.03;3.77;;;;;;;-0.48;67.72;98865.03;1767158;78;21132;-79
2021/03/21 01:08:30;;;;;;;4.78;3.52;;;;;;;-0.49;67.60;98861.62;1767181;80;21201;-79
2021/03/21 01:11:02;;;;;;;4.60;3.27;;;;;;;-0.46;67.68;98860.73;1736727;80;21649;-78
2021/03/21 01:13:30;;;;;;;4.50;3.20;;;;;;;-0.50;68.18;98855.27;1767020;79;21219;-79
2021/03/21 01:15:57;;;;;;;5.65;3.42;;;;;;;-0.52;68.12;98843.73;1766165;80;21140;-78
2021/03/21 01:18:32;;;;;;;5.30;3.72;;;;;;;-0.53;67.87;98834.36;1765409;80;21586;-79
2021/03/21 01:21:00;;;;;;;4.40;3.30;;;;;;;-0.50;67.97;98833.47;1762891;80;21201;-79
2021/03/21 01:23:27;;;;;;;3.90;3.30;;;;;;;-0.52;68.25;98830.07;1767932;80;21191;-79
2021/03/21 01:25:55;;;;;;;8.35;4.05;;;;;;;-0.55;68.39;98824.55;1771989;80;21197;-78
2021/03/21 01:28:26;;;;;;;8.30;3.65;;;;;;;-0.58;68.43;98817.36;1771268;80;21311;-79
2021/03/21 01:30:57;;;;;;;5.17;4.10;;;;;;;-0.60;68.51;98811.41;1770629;80;21240;-79
2021/03/21 01:33:28;;;;;;;4.85;3.35;;;;;;;-0.62;68.50;98805.45;1769759;80;21220;-79
2021/03/21 01:35:55;;;;;;;4.75;3.47;;;;;;;-0.62;68.70;98792.62;1771191;79;21617;-79
2021/03/21 01:38:22;;;;;;;4.20;3.67;;;;;;;-0.64;68.94;98783.70;1769816;80;21826;-79
2021/03/21 01:40:54;;;;;;;5.95;3.70;;;;;;;-0.64;68.81;98784.11;1768839;80;21255;-78
2021/03/21 01:43:32;;;;;;;4.03;3.50;;;;;;;-0.64;68.92;98790.11;1772970;79;21159;-79
2021/03/21 01:45:59;;;;;;;3.92;3.37;;;;;;;-0.62;68.96;98772.11;1773362;80;21227;-78
2021/03/21 01:48:49;;;;;;;5.50;3.83;;;;;;;-0.62;69.16;98784.94;1770095;80;21998;-79
2021/03/21 01:51:34;;;;;;;4.72;3.83;;;;;;;-0.64;69.23;98764.88;1751339;80;21660;-77
2021/03/21 01:54:07;;;;;;;4.37;3.62;;;;;;;-0.63;69.14;98769.16;1769554;79;21282;-78
2021/03/21 01:56:36;;;;;;;4.15;3.58;;;;;;;-0.63;69.37;98760.18;1766301;79;21204;-78
2021/03/21 01:59:16;;;;;;;5.37;3.75;;;;;;;-0.63;69.43;98752.48;1774183;79;21177;-78
2021/03/21 02:01:44;;;;;;;6.90;3.40;;;;;;;-0.61;69.57;98763.57;1762255;79;21186;-78
2021/03/21 02:04:12;;;;;;;;;;;;;;;-0.60;69.98;98742.17;1775182;80;21215;-79
2021/03/21 02:06:59;;;;;;;;;;;;;;;-0.60;70.22;98734.48;1777770;78;21280;-79
2021/03/21 02:09:48;;;;;;;8.05;3.90;;;;;;;-0.63;70.16;98735.83;1766770;80;20273;-78
2021/03/21 02:12:59;;;;;;;5.58;3.72;;;;;;;-0.63;70.08;98729.42;1771521;80;21609;-77
2021/03/21 02:15:51;;;;;;;6.10;3.37;;;;;;;-0.64;70.22;98720.02;1770196;80;21210;-78
2021/03/21 02:18:45;;;;;;;5.55;3.65;;;;;;;-0.59;70.18;98713.09;1769543;80;21206;-77
2021/03/21 02:21:26;;;;;;;5.97;3.58;;;;;;;-0.56;70.27;98714.31;1770589;80;21222;-79
2021/03/21 02:24:18;;;;;;;4.15;3.22;;;;;;;-0.53;70.22;98716.41;1768092;80;21131;-78
2021/03/21 02:27:11;;;;;;;3.50;2.80;;;;;;;-0.52;70.41;98706.55;1773042;80;20924;-79
2021/03/21 02:30:07;;;;;;;4.25;3.35;;;;;;;-0.51;70.48;98700.97;1764454;80;21784;-78
2021/03/21 02:32:54;;;;;;;3.95;3.52;;;;;;;-0.49;70.57;98678.72;1697578;83;21278;-79
2021/03/21 02:35:41;;;;;;;5.28;2.92;;;;;;;-0.47;70.64;98702.63;1693166;83;21294;-79
2021/03/21 02:38:17;;;;;;;4.87;3.83;;;;;;;-0.45;70.73;98693.16;1666420;85;21221;-79
2021/03/21 02:40:57;;;;;;;3.50;2.85;;;;;;;-0.46;70.74;98676.09;1657878;85;21204;-79
2021/03/21 02:43:38;;;;;;;4.17;3.02;;;;;;;-0.43;70.72;98673.47;1668287;85;21559;-79
2021/03/21 02:46:22;;;;;;;4.67;3.50;;;;;;;-0.35;70.99;98674.16;1827011;77;22395;-77
2021/03/21 02:49:09;;;;;;;2.85;2.22;;;;;;;-0.38;70.83;98661.40;1795329;78;21554;-78
2021/03/21 02:51:40;;;;;;;4.87;3.12;;;;;;;-0.36;71.29;98660.94;1731036;81;26417;-79
2021/03/21 02:54:16;;;;;;;2.58;2.27;;;;;;;-0.36;71.26;98663.95;1703691;81;21279;-79
2021/03/21 02:56:47;;;;;;;3.95;3.05;;;;;;;-0.35;71.36;98645.95;1726260;81;21263;-78
2021/03/21 02:59:19;;;;;;;3.65;2.37;;;;;;;-0.37;71.28;98641.28;1725404;81;21285;-78
2021/03/21 03:01:54;;;;;;;2.58;2.37;;;;;;;-0.36;71.37;98636.58;1733104;81;21030;-79
2021/03/21 03:04:44;;;;;;;3.25;2.45;;;;;;;-0.35;71.57;98638.25;1730249;81;21262;-79
2021/03/21 03:07:23;;;;;;;3.77;2.90;;;;;;;-0.33;71.36;98625.41;1731524;80;21610;-79
2021/03/21 03:09:58;;;;;;;3.27;2.50;;;;;;;-0.30;71.55;98636.45;1688392;83;21185;-78
2021/03/21 03:12:38;;;;;;;2.80;2.45;;;;;;;-0.31;71.58;98621.94;1728111;81;21205;-78
2021/03/21 03:15:10;;;;;;;2.87;2.37;;;;;;;-0.30;71.77;98615.92;1708429;82;21227;-78
2021/03/21 03:18:06;;;;;;;2.77;2.47;;;;;;;-0.22;71.72;98609.36;1827014;77;22563;-78
2021/03/21 03:20:44;;;;;;;3.10;2.80;;;;;;;-0.24;71.89;98605.53;1760868;80;21042;-79
2021/03/21 03:23:36;;;;;;;2.55;2.35;;;;;;;-0.21;71.87;98596.08;1738167;81;22260;-78
2021/03/21 03:26:21;;;;;;;3.95;2.60;;;;;;;-0.18;71.93;98585.75;1737299;81;21620;-79
2021/03/21 03:29:20;;;;;;;2.20;2.00;;;;;;;-0.20;71.87;98579.36;1762103;80;21173;-78
2021/03/21 03:31:51;;;;;;;2.85;2.12;;;;;;;-0.19;72.28;98584.08;1757588;80;21145;-78
2021/03/21 03:34:18;;;;;;;2.30;2.10;;;;;;;-0.18;72.10;98579.34;1758319;80;22030;-77
2021/03/21 03:36:45;;;;;;;2.90;2.20;;;;;;;-0.18;72.22;98578.89;1761885;80;22356;-78
2021/03/21 03:39:13;;;;;;;2.20;2.00;;;;;;;-0.15;72.31;98566.44;1763208;80;20982;-78
2021/03/21 03:42:01;;;;;;;2.20;2.00;;;;;;;-0.13;72.42;98567.26;1756128;79;21061;-76
2021/03/21 03:45:03;;;;;;;3.25;2.37;;;;;;;-0.14;72.34;98556.57;1763332;79;21073;-78
2021/03/21 03:47:47;;;;;;;6.35;4.30;;;;;;;-0.13;72.35;98571.11;1759815;80;21196;-78
2021/03/21 03:50:56;;;;;;;9.65;5.40;;;;;;;-0.12;72.80;98552.25;1758825;80;21735;-78
2021/03/21 03:53:58;;;;;;;9.08;6.30;;;;;;;-0.11;72.78;98551.36;1763035;80;20994;-79
2021/03/21 03:56:50;;;;;;;6.03;3.52;;;;;;;-0.09;72.73;98549.62;1762982;80;21572;-80
2021/03/21 04:00:04;;;;;;;4.60;2.77;;;;;;;-0.07;72.88;98540.17;1761391;80;21154;-79
2021/03/21 04:02:53;;;;;;;5.67;4.62;;;;;;;-0.06;72.86;98537.55;1686741;82;21703;-77
2021/03/21 04:05:59;;;;;;;3.72;2.42;;;;;;;-0.04;72.92;98537.53;1690345;83;22201;-79
2021/03/21 04:08:52;;;;;;;4.12;2.15;;;;;;;0.02;73.32;98524.55;1768722;78;22787;-77
2021/03/21 04:11:30;;;;;;;2.92;1.87;;;;;;;-0.02;73.01;98521.66;1737563;81;21147;-79
2021/03/21 04:14:10;;;;;;;3.05;2.27;;;;;;;-0.02;73.27;98528.92;1746881;79;21684;-79
2021/03/21 04:16:45;;;;;;;2.35;1.98;;;;;;;-0.01;73.20;98513.08;1751964;79;21088;-79
2021/03/21 04:19:14;;;;;;;2.00;1.70;;;;;;;0.02;73.37;98516.84;1742127;80;21631;-79
2021/03/21 04:21:49;;;;;;;1.98;1.60;;;;;;;0.04;73.31;98520.23;1751225;79;21206;-79
2021/03/21 04:24:33;;;;;;;2.10;1.90;;;;;;;0.05;73.55;98503.94;1755946;79;21028;-79
2021/03/21 04:27:08;;;;;;;2.85;1.90;;;;;;;0.06;73.54;98510.78;1749681;79;21259;-79
2021/03/21 04:30:02;;;;;;;1.75;1.60;;;;;;;0.08;73.51;98511.56;1747620;79;21013;-79
2021/03/21 04:32:50;;;;;;;2.05;1.60;;;;;;;0.10;73.68;98499.98;1734059;79;22368;-78
2021/03/21 04:35:25;;;;;;;1.70;1.50;;;;;;;0.12;73.62;98499.07;1751758;79;21034;-79
2021/03/21 04:38:04;;;;;;;1.70;1.60;;;;;;;0.14;73.64;98503.73;1745754;79;21217;-79
2021/03/21 04:40:31;;;;;;;2.87;1.98;;;;;;;0.14;73.83;98494.75;1748307;79;21437;-79
2021/03/21 04:43:26;;;;;;;4.67;2.67;;;;;;;0.15;73.84;98495.14;1749458;79;21628;-79
2021/03/21 04:45:59;;;;;;;1.67;1.57;;;;;;;0.15;73.97;98493.86;1747955;79;21197;-78
2021/03/21 04:48:27;;;;;;;2.00;1.60;;;;;;;0.16;73.89;98489.12;1753611;79;21127;-78
2021/03/21 04:50:59;;;;;;;1.72;1.60;;;;;;;0.19;73.93;98486.47;1746965;81;21155;-79
2021/03/21 04:53:55;;;;;;;1.65;1.35;;;;;;;0.21;74.00;98488.57;1746818;80;21213;-79
2021/03/21 04:56:27;;;;;;;2.55;1.60;;;;;;;0.24;74.18;98488.09;1746592;79;21123;-79
2021/03/21 04:58:59;;;;;;;1.70;1.32;;;;;;;0.26;74.14;98481.20;1745632;81;21168;-79
2021/03/21 05:01:52;;;;;;;1.50;1.20;;;;;;;0.28;74.16;98484.55;1754522;80;21171;-79
2021/03/21 05:04:24;;;;;;;1.20;1.10;;;;;;;0.31;74.31;98481.91;1748350;79;21136;-79
2021/03/21 05:07:05;;;;;;;1.20;1.10;;;;;;;0.32;74.25;98473.34;1734041;80;21213;-79
2021/03/21 05:09:40;;;;;;;1.50;1.40;;;;;;;0.35;74.26;98465.11;1735039;80;21162;-78
2021/03/21 05:12:28;;;;;;;1.20;1.10;;;;;;;0.40;74.33;98465.00;1742888;81;21259;-80
2021/03/21 05:14:59;;;;;;;1.72;1.62;;;;;;;0.45;74.50;98456.73;1746969;80;21206;-80
2021/03/21 05:18:12;;;;;;;2.45;1.42;;;;;;;0.44;74.53;98456.32;1754299;80;21150;-80
2021/03/21 05:21:06;;;;;;;1.22;1.12;;;;;;;0.45;74.62;98458.03;1759882;79;21697;-78
2021/03/21 05:24:24;;;;;;;2.08;1.27;;;;;;;0.51;74.63;98451.44;1740181;80;21696;-79
2021/03/21 05:27:06;;;;;;;0.98;0.90;;;;;;;0.53;74.71;98445.79;1749459;80;21184;-81
2021/03/21 05:29:56;;;;;;;1.10;1.00;;;;;;;0.58;74.73;98438.81;1762350;80;21218;-80
2021/03/21 05:32:24;;;;;;;1.17;1.07;;;;;;;0.61;74.70;98445.14;1737477;80;21143;-79
2021/03/21 05:34:54;;;;;;;1.47;1.10;;;;;;;0.62;74.82;98432.72;1745732;80;21411;-79
2021/03/21 05:37:53;;;;;;;1.42;1.20;;;;;;;0.65;74.88;98439.05;1730560;81;21602;-78
2021/03/21 05:40:55;;;;;;;0.95;0.80;;;;;;;0.65;74.81;98441.62;1737308;81;21647;-80
2021/03/21 05:43:57;;;;;;;1.37;0.98;;;;;;;0.66;74.85;98440.73;1732844;80;21028;-79
2021/03/21 05:46:50;;;;;;;3.47;2.27;;;;;;;0.73;75.15;98437.98;1751410;80;21156;-79
2021/03/21 05:49:42;;;;;;;2.47;2.10;;;;;;;0.76;75.12;98439.20;1756782;79;21408;-80
2021/03/21 05:52:37;;;;;;;1.05;0.95;;;;;;;0.85;75.16;98436.37;1755141;80;21305;-80
2021/03/21 05:55:31;;;;;;;2.65;1.45;;;;;;;0.88;75.15;98424.71;1747053;80;21673;-80
2021/03/21 05:58:52;;;;;;;3.92;2.67;;;;;;;0.94;75.19;98436.09;1731448;81;21176;-80
2021/03/21 06:02:00;;;;;;;2.58;1.40;;;;;;;1.01;75.17;98444.04;1749967;80;21156;-79
2021/03/21 06:05:23;;;;;;;1.37;1.10;;;;;;;1.04;75.20;98443.95;1753464;80;21861;-80
2021/03/21 06:08:07;;;;;;;3.30;1.70;;;;;;;1.05;75.25;98441.77;1744658;80;21716;-79
2021/03/21 06:11:24;;;;;;;2.85;1.50;;;;;;;1.14;75.42;98434.67;1741971;81;21112;-81
2021/03/21 06:14:33;;;;;;;3.35;1.67;;;;;;;1.18;75.32;98437.56;1755166;80;21244;-80
2021/03/21 06:17:11;;;;;;;2.08;1.17;;;;;;;1.21;75.53;98430.59;1745667;81;21220;-79
2021/03/21 06:19:59;;;;;;;1.95;1.05;;;;;;;1.24;75.45;98425.80;1745878;80;21239;-81
2021/03/21 06:22:56;;;;;;;3.35;1.32;;;;;;;1.27;75.51;98419.28;1741137;80;21048;-81
2021/03/21 06:25:38;;;;;;;;;;;;;;;1.33;75.57;98413.95;1751073;80;21719;-82
2021/03/21 06:28:50;;;;;;;1.92;1.00;;;;;;;1.42;75.65;98421.37;1718337;81;20300;-77
2021/03/21 06:31:28;;;;;;;1.45;0.88;;;;;;;1.49;75.70;98425.45;1738004;81;21618;-79
2021/03/21 06:34:28;;;;;;;2.50;1.10;;;;;;;1.62;75.78;98413.02;1745989;81;22112;-79
2021/03/21 06:37:27;;;;;;;2.30;1.10;;;;;;;1.71;75.67;98424.75;1699891;82;21263;-77
2021/03/21 06:40:02;;;;;;;0.98;0.90;;;;;;;1.82;75.70;98425.27;1717264;81;21231;-78
2021/03/21 06:42:55;;;;;;;1.00;0.57;;;;;;;1.90;75.62;98437.41;1826730;77;22108;-77
2021/03/21 06:46:04;;;;;;;1.92;0.90;;;;;;;1.92;75.66;98434.36;1797235;78;21056;-78
2021/03/21 06:49:10;;;;;;;1.60;1.00;;;;;;;1.98;75.65;98436.72;1795374;78;21383;-77
2021/03/21 06:52:07;;;;;;;1.10;1.00;;;;;;;2.10;75.68;98442.36;1794349;78;21068;-78
2021/03/21 06:54:56;;;;;;;1.02;0.93;;;;;;;2.12;75.59;98447.02;1748748;80;28439;-78
2021/03/21 06:58:10;;;;;;;1.37;1.12;;;;;;;2.16;75.86;98443.47;1734014;81;21054;-78
2021/03/21 07:04:37;;;;;;;1.75;1.45;;;;;;;2.11;75.59;98437.63;1730836;80;21209;-78
2021/03/21 07:07:50;;;;;;;1.30;0.98;;;;;;;2.06;75.68;98435.64;1728527;82;20984;-77
2021/03/21 07:10:57;;;;;;;1.30;1.12;;;;;;;2.09;75.86;98445.83;1736311;81;21155;-76
2021/03/21 07:13:47;;;;;;;2.40;1.57;;;;;;;2.22;75.83;98436.81;1732380;82;21171;-77
2021/03/21 07:16:44;;;;;;;1.85;1.52;;;;;;;2.25;75.90;98441.86;1737688;81;21249;-78
2021/03/21 07:19:50;;;;;;;2.20;1.40;;;;;;;2.39;76.13;98437.07;1738094;80;21925;-77
2021/03/21 07:22:49;;;;;;;1.82;1.30;;;;;;;2.52;75.95;98441.78;1736891;80;21195;-78
2021/03/21 07:25:55;;;;;;;1.12;1.02;;;;;;;2.55;75.81;98439.09;1739342;80;21192;-77
2021/03/21 07:29:04;;;;;;;1.45;0.75;;;;;;;2.61;76.03;98443.61;1737950;80;21029;-77
2021/03/21 07:31:55;;;;;;;1.67;1.12;;;;;;;2.78;76.05;98441.71;1738601;80;21175;-77
2021/03/21 07:34:51;;;;;;;1.02;0.90;;;;;;;2.81;75.83;98448.05;1709916;80;21255;-78
2021/03/21 07:37:43;;;;;;;2.10;1.30;;;;;;;2.85;76.07;98452.17;1733081;80;21735;-78
2021/03/21 07:40:49;;;;;;;3.05;1.20;;;;;;;2.74;75.73;98460.74;1736217;80;21203;-77
2021/03/21 07:43:57;;;;;;;0.95;0.80;;;;;;;2.60;75.81;98460.39;1735104;80;21151;-78
2021/03/21 07:47:01;;;;;;;2.58;1.00;;;;;;;2.48;75.93;98455.68;1730654;80;21187;-78
2021/03/21 07:50:08;;;;;;;1.45;0.75;;;;;;;2.40;76.17;98449.05;1717281;80;21195;-78
2021/03/21 07:53:01;;;;;;;0.90;0.70;;;;;;;2.39;76.24;98460.25;1734103;80;21259;-78
2021/03/21 07:56:07;;;;;;;1.20;0.93;;;;;;;2.36;76.43;98453.09;1728497;80;21589;-81
2021/03/21 07:58:49;;;;;;;0.83;0.80;;;;;;;2.32;76.35;98445.89;1655423;84;21178;-78
2021/03/21 08:01:19;;;;;;;2.65;0.90;;;;;;;2.27;76.38;98456.82;1658373;85;21606;-84
2021/03/21 08:03:55;;;;;;;0.88;0.75;;;;;;;2.23;76.49;98448.78;1662779;84;22207;-81
2021/03/21 08:06:44;;;;;;;1.52;1.12;;;;;;;2.23;76.59;98453.94;1651819;84;21223;-83
2021/03/21 08:09:17;;;;;;;2.65;2.00;;;;;;;2.22;76.53;98454.84;1620940;87;21269;-82
2021/03/21 08:12:06;;;;;;;7.22;2.42;;;;;;;2.23;76.67;98443.63;1615336;87;21282;-78
2021/03/21 08:14:42;;;;;;;3.60;2.40;;;;;;;2.25;76.77;98452.16;1618500;87;21719;-81
2021/03/21 08:17:28;;;;;;;6.55;4.65;;;;;;;2.26;76.77;98458.14;1574557;90;22227;-78
2021/03/21 08:20:21;;;;;;;5.37;4.13;;;;;;;2.28;76.91;98461.06;1614218;87;21460;-78
2021/03/21 08:22:51;;;;;;;7.37;4.47;;;;;;;2.30;76.99;98459.70;1567170;89;21239;-77
2021/03/21 08:25:26;;;;;;;9.68;4.30;;;;;;;2.39;77.09;98464.12;1610187;86;21344;-79
2021/03/21 08:27:55;;;;;;;11.22;4.65;;;;;;;2.45;77.06;98461.33;1615799;87;22243;-78
2021/03/21 08:30:27;;;;;;;6.08;3.45;;;;;;;2.49;77.08;98460.77;1617696;87;21257;-79
2021/03/21 08:33:00;;;;;;;7.47;4.42;;;;;;;2.55;77.10;98454.55;1615354;87;22453;-80
2021/03/21 08:35:33;;;;;;;9.13;5.30;;;;;;;2.64;77.17;98460.24;1571015;90;21182;-83
2021/03/21 08:38:19;;;;;;;7.83;3.85;;;;;;;2.74;77.23;98460.74;1602666;87;21299;-83
2021/03/21 08:40:47;;;;;;;8.20;3.08;;;;;;;2.83;77.38;98463.02;1609008;88;21264;-82
2021/03/21 08:43:23;;;;;;;8.35;3.27;;;;;;;2.84;77.38;98472.42;1615185;87;21427;-83
2021/03/21 08:46:02;;;;;;;9.05;3.35;;;;;;;2.74;77.86;98467.19;1628919;86;21282;-82
2021/03/21 08:48:36;;;;;;;7.05;3.20;;;;;;;2.68;77.91;98467.41;1660347;84;21706;-83
2021/03/21 08:51:17;;;;;;;4.67;3.02;;;;;;;2.64;79.79;98473.58;1665426;84;21176;-82
2021/03/21 08:54:08;;;;;;;9.40;3.27;;;;;;;2.65;79.40;98471.39;1672161;84;21218;-80
2021/03/21 08:56:56;;;;;;;8.48;3.52;;;;;;;2.70;80.72;98474.65;1639265;85;21303;-80
2021/03/21 08:59:37;;;;;;;7.50;3.85;;;;;;;2.69;79.76;98471.69;1668535;84;21220;-80
2021/03/21 09:02:20;;;;;;;9.35;4.20;;;;;;;2.65;79.76;98481.70;1677723;84;21181;-80
2021/03/21 09:05:04;;;;;;;10.68;4.65;;;;;;;2.59;81.41;98476.77;1658399;85;21313;-80
2021/03/21 09:07:44;;;;;;;13.85;4.33;;;;;;;2.56;81.09;98489.75;1658645;84;21276;-79
2021/03/21 09:10:34;;;;;;;9.63;4.45;;;;;;;2.52;81.55;98490.73;1627087;86;21239;-79
2021/03/21 09:13:15;;;;;;;9.20;4.33;;;;;;;2.49;81.08;98505.02;1655351;84;21224;-79
2021/03/21 09:15:47;;;;;;;9.53;4.62;;;;;;;2.52;80.85;98506.20;1666235;84;21260;-78
2021/03/21 09:18:24;;;;;;;8.95;4.37;;;;;;;2.52;81.33;98504.91;1672791;84;21185;-80
2021/03/21 09:21:20;;;;;;;8.75;3.80;;;;;;;2.57;80.70;98504.31;1663362;84;21132;-79
2021/03/21 09:24:03;;;;;;;14.78;4.42;;;;;;;2.55;82.54;98511.24;1668026;84;21226;-79
2021/03/21 09:26:42;;;;;;;11.63;4.30;;;;;;;2.50;81.06;98513.16;1673312;84;21219;-79
2021/03/21 09:29:23;;;;;;;10.90;3.87;;;;;;;2.48;81.25;98521.38;1674194;84;21142;-79
2021/03/21 09:31:54;;;;;;;10.30;3.72;;;;;;;2.42;83.08;98524.55;1669448;84;21215;-79
2021/03/21 09:34:27;;;;;;;9.63;4.10;;;;;;;2.35;82.03;98528.23;1670565;84;21186;-79
2021/03/21 09:37:08;;;;;;;12.65;3.67;;;;;;;2.29;82.90;98542.59;1676243;84;21445;-80
2021/03/21 09:39:43;;;;;;;8.73;2.80;;;;;;;2.21;83.54;98545.85;1673421;84;21279;-80
2021/03/21 09:42:13;;;;;;;14.75;4.17;;;;;;;2.18;83.95;98560.95;1666952;84;21682;-79
2021/03/21 09:44:48;;;;;;;12.18;4.22;;;;;;;2.16;83.16;98556.77;1666361;84;21821;-79
2021/03/21 09:47:32;;;;;;;8.13;3.33;;;;;;;2.15;82.63;98562.79;1671105;84;21184;-79
2021/03/21 09:50:22;;;;;;;9.08;3.70;;;;;;;2.16;82.28;98560.63;1665982;84;21266;-79
2021/03/21 09:53:18;;;;;;;6.17;3.45;;;;;;;2.24;82.36;98563.78;1671135;84;21232;-77
2021/03/21 09:55:54;;;;;;;9.88;3.50;;;;;;;2.30;81.76;98562.32;1616283;87;21303;-77
2021/03/21 09:59:00;;;;;;;8.10;2.75;;;;;;;2.37;82.21;98559.92;1566779;89;21299;-79
2021/03/21 10:01:58;;;;;;;8.85;2.55;;;;;;;2.42;83.78;98558.49;1794055;77;23460;-79
2021/03/21 10:04:36;;;;;;;8.53;2.90;;;;;;;2.27;82.18;98568.86;1774644;80;21203;-80
2021/03/21 10:07:08;;;;;;;8.85;3.10;;;;;;;2.27;82.71;98584.31;1773246;80;21993;-78
2021/03/21 10:09:36;;;;;;;9.48;2.98;;;;;;;2.31;82.30;98578.16;1772290;80;21258;-80
2021/03/21 10:12:08;;;;;;;7.47;3.33;;;;;;;2.42;82.42;98580.39;1772951;79;21244;-78
2021/03/21 10:14:40;;;;;;;10.10;3.00;;;;;;;2.52;82.56;98591.23;1765793;79;21286;-78
2021/03/21 10:17:24;;;;;;;8.08;3.15;;;;;;;2.56;82.62;98596.69;1775290;80;21108;-79
2021/03/21 10:19:55;;;;;;;5.97;3.50;;;;;;;2.53;81.80;98604.53;1771330;80;22824;-79
2021/03/21 10:22:48;;;;;;;11.45;4.08;;;;;;;2.54;81.69;98607.48;1773236;80;21127;-76
2021/03/21 10:25:21;;;;;;;6.08;3.08;;;;;;;2.57;81.82;98604.81;1694320;83;21127;-75
2021/03/21 10:27:51;;;;;;;7.50;3.85;;;;;;;2.64;81.63;98607.59;1694106;83;21232;-76
2021/03/21 10:30:31;;;;;;;6.75;2.80;;;;;;;2.66;82.13;98619.96;1691914;83;21228;-74
2021/03/21 10:33:06;;;;;;;7.03;3.20;;;;;;;2.62;81.47;98626.12;1693537;83;21302;-74
2021/03/21 10:35:38;;;;;;;7.10;3.05;;;;;;;2.57;81.99;98612.54;1691323;83;21562;-75
2021/03/21 10:38:09;;;;;;;8.40;3.40;;;;;;;2.57;81.85;98634.45;1693972;83;21698;-74
2021/03/21 10:40:43;;;;;;;6.28;2.77;;;;;;;2.55;82.51;98634.93;1692700;83;21010;-75
2021/03/21 10:43:24;;;;;;;4.65;2.45;;;;;;;2.52;82.57;98651.78;1693360;83;21785;-74
2021/03/21 10:45:55;;;;;;;9.03;3.08;;;;;;;2.56;82.42;98641.79;1694848;83;22252;-74
2021/03/21 10:48:30;;;;;;;8.48;2.60;;;;;;;2.71;82.29;98650.30;1692786;83;21771;-75
2021/03/21 10:51:08;;;;;;;8.63;2.62;;;;;;;2.77;82.27;98651.38;1694645;82;21166;-74
2021/03/21 10:53:49;;;;;;;8.80;2.83;;;;;;;2.81;82.07;98654.27;1694483;83;21267;-76
2021/03/21 10:59:25;;;;;;;6.78;2.58;;;;;;;2.88;81.44;98648.45;1778507;78;22798;-74
2021/03/21 11:02:22;;;;;;;7.42;4.22;;;;;;;2.87;81.16;98665.67;1748671;80;22243;-74
2021/03/21 11:05:06;;;;;;;9.20;3.33;;;;;;;2.88;80.52;98680.69;1724839;80;21198;-75
2021/03/21 11:07:42;;;;;;;14.28;7.28;;;;;;;2.95;80.00;98674.91;1828202;76;22458;-77
2021/03/21 11:10:11;;;;;;;9.38;4.42;;;;;;;3.02;79.94;98672.05;1799819;78;21044;-77
2021/03/21 11:12:43;;;;;;;11.90;5.40;;;;;;;3.14;78.36;98704.34;1795904;78;21251;-74
2021/03/21 11:15:33;;;;;;;7.12;4.37;;;;;;;3.20;79.11;98688.66;1800754;78;21219;-74
2021/03/21 11:18:07;;;;;;;9.38;4.45;;;;;;;3.32;78.60;98687.39;1803285;78;21194;-74
2021/03/21 11:20:37;;;;;;;4.80;2.40;;;;;;;3.41;78.57;98693.97;1797648;78;21214;-76
2021/03/21 11:23:21;;;;;;;5.05;1.57;;;;;;;3.32;76.59;98692.55;1799238;78;21612;-75
2021/03/21 11:25:49;;;;;;;8.50;2.35;;;;;;;3.32;76.21;98703.70;1802735;78;21776;-75
2021/03/21 11:28:39;;;;;;;7.83;2.10;;;;;;;3.52;78.18;98706.05;1800413;78;21083;-74
2021/03/21 11:31:09;;;;;;;9.10;2.50;;;;;;;3.51;74.92;98712.13;1805724;78;21581;-74
2021/03/21 11:33:43;;;;;;;4.00;1.40;;;;;;;3.73;75.99;98713.51;1801460;78;21199;-75
2021/03/21 11:36:28;;;;;;;6.22;2.27;;;;;;;3.88;75.55;98721.14;1803768;78;21682;-75
2021/03/21 11:39:03;;;;;;;4.72;1.70;;;;;;;4.03;75.90;98711.53;1797422;78;21284;-74
2021/03/21 11:41:37;;;;;;;5.42;1.98;;;;;;;4.11;74.56;98704.34;1796070;78;21222;-74
2021/03/21 11:44:30;;;;;;;6.70;2.25;;;;;;;4.06;75.19;98714.45;1806080;78;21156;-74
2021/03/21 11:47:12;;;;;;;4.90;1.70;;;;;;;4.08;76.18;98714.80;1799817;78;21147;-74
2021/03/21 11:49:40;;;;;;;3.40;1.30;;;;;;;3.93;72.32;98732.16;1799436;78;21704;-73
2021/03/21 11:52:09;;;;;;;3.52;1.05;;;;;;;3.91;73.27;98719.73;1799436;78;21218;-74
2021/03/21 11:54:38;;;;;;;3.72;1.40;;;;;;;4.08;74.30;98724.29;1799675;78;22670;-74
2021/03/21 11:57:47;;;;;;;5.45;1.37;;;;;;;4.13;74.27;98738.72;1799622;78;21203;-73
2021/03/21 12:00:22;;;;;;;4.53;1.65;;;;;;;4.20;73.69;98732.45;1801407;78;21210;-73
2021/03/21 12:03:04;;;;;;;4.20;1.47;;;;;;;4.08;72.46;98738.05;1802013;78;22301;-74
2021/03/21 12:05:36;;;;;;;5.00;1.37;;;;;;;4.02;72.31;98727.94;1805226;78;21688;-73
2021/03/21 12:08:23;;;;;;;2.72;1.07;;;;;;;4.12;71.57;98734.47;1802327;78;21301;-73
2021/03/21 12:10:53;;;;;;;5.22;1.72;;;;;;;4.39;72.95;98744.66;1752587;79;21105;-74
2021/03/21 12:13:36;;;;;;;4.85;1.40;;;;;;;4.47;71.98;98754.26;1740254;81;21219;-74
2021/03/21 12:16:29;;;;;;;5.33;1.90;;;;;;;4.47;71.65;98755.55;1743779;81;21186;-75
2021/03/21 12:18:58;;;;;;;4.42;1.50;;;;;;;4.41;70.83;98757.08;1748465;80;21401;-74
2021/03/21 12:21:26;;;;;;;6.12;2.10;;;;;;;4.20;68.75;98750.53;1768914;80;21733;-73
2021/03/21 12:24:06;;;;;;;4.40;1.15;;;;;;;4.24;70.59;98759.84;1766961;80;21189;-73
2021/03/21 12:26:45;;;;;;;4.78;0.95;;;;;;;4.30;69.33;98759.23;1768441;80;21047;-73
2021/03/21 12:29:42;;;;;;;2.15;1.02;;;;;;;4.18;70.54;98775.57;1763042;80;21632;-73
2021/03/21 12:32:29;;;;;;;4.97;1.80;;;;;;;4.40;71.06;98777.38;1767017;80;21648;-73
2021/03/21 12:34:57;;;;;;;;;;;;;;;4.42;70.82;98772.97;1732793;82;21336;-74
2021/03/21 12:37:50;;;;;;;5.00;1.85;;;;;;;4.45;71.18;98778.02;1741796;81;20308;-73
2021/03/21 12:40:40;;;;;;;3.92;1.40;;;;;;;4.44;69.50;98775.06;1746844;81;21128;-75
2021/03/21 12:43:30;;;;;;;4.90;1.47;;;;;;;4.53;71.03;98778.58;1740205;81;21220;-74
2021/03/21 12:46:13;;;;;;;4.28;1.52;;;;;;;4.56;70.27;98788.80;1741446;81;21298;-73
2021/03/21 12:48:51;;;;;;;3.80;1.20;;;;;;;4.50;67.33;98786.45;1735802;81;21682;-73
2021/03/21 12:51:30;;;;;;;4.30;1.17;;;;;;;4.23;66.99;98790.47;1739368;80;21168;-74
2021/03/21 12:54:00;;;;;;;4.10;1.50;;;;;;;4.13;68.39;98795.56;1733952;81;21089;-73
2021/03/21 12:56:28;;;;;;;3.40;1.37;;;;;;;4.18;68.46;98806.58;1736078;81;21719;-73